createdAt,value
2018-05-23T00:01:28.944Z,15.10
2018-05-23T00:03:57.310Z,14.90
2018-05-23T00:06:24.928Z,14.90
2018-05-23T00:08:52.551Z,14.90
2018-05-23T00:11:20.196Z,14.90
2018-05-23T00:13:48.583Z,14.90
2018-05-23T00:16:16.956Z,14.90
2018-05-23T00:18:45.362Z,14.90
2018-05-23T00:21:12.968Z,14.90
2018-05-23T00:23:40.641Z,14.90
2018-05-23T00:26:09.023Z,14.80
2018-05-23T00:28:36.643Z,14.80
2018-05-23T00:31:04.258Z,14.80
2018-05-23T00:33:32.637Z,14.80
2018-05-23T00:36:01.050Z,14.80
2018-05-23T00:38:28.674Z,14.80
2018-05-23T00:40:57.070Z,14.80
2018-05-23T00:43:24.731Z,14.80
2018-05-23T00:45:52.388Z,14.80
2018-05-23T00:48:20.021Z,14.70
2018-05-23T00:50:47.640Z,14.70
2018-05-23T00:53:15.276Z,14.70
2018-05-23T00:55:42.895Z,14.70
2018-05-23T00:58:11.300Z,14.70
2018-05-23T01:00:39.720Z,14.60
2018-05-23T01:03:07.347Z,14.60
2018-05-23T01:05:34.941Z,14.60
2018-05-23T01:08:02.556Z,14.60
2018-05-23T01:10:30.939Z,14.60
2018-05-23T01:12:58.571Z,14.60
2018-05-23T01:15:26.195Z,14.60
2018-05-23T01:17:53.819Z,14.60
2018-05-23T01:20:21.483Z,14.60
2018-05-23T01:22:49.117Z,14.60
2018-05-23T01:25:16.769Z,14.60
2018-05-23T01:27:44.404Z,14.70
2018-05-23T01:30:12.026Z,14.70
2018-05-23T01:32:39.679Z,14.70
2018-05-23T01:35:08.069Z,14.80
2018-05-23T01:37:35.689Z,14.80
2018-05-23T01:40:04.128Z,14.80
2018-05-23T01:42:31.749Z,14.80
2018-05-23T01:45:00.137Z,14.80
2018-05-23T01:47:27.746Z,14.80
2018-05-23T01:49:55.369Z,14.80
2018-05-23T01:52:22.990Z,14.80
2018-05-23T01:54:50.628Z,14.80
2018-05-23T01:57:18.257Z,14.80
2018-05-23T01:59:45.884Z,14.80
2018-05-23T02:02:14.270Z,14.80
2018-05-23T02:04:42.649Z,14.70
2018-05-23T02:07:11.082Z,14.70
2018-05-23T02:09:38.732Z,14.70
2018-05-23T02:12:06.361Z,14.70
2018-05-23T02:14:33.975Z,14.70
2018-05-23T02:17:01.598Z,14.70
2018-05-23T02:19:29.248Z,14.70
2018-05-23T02:21:56.890Z,14.70
2018-05-23T02:24:25.281Z,14.70
2018-05-23T02:26:52.910Z,14.70
2018-05-23T02:29:21.305Z,14.70
2018-05-23T02:31:48.914Z,14.70
2018-05-23T02:34:16.540Z,14.70
2018-05-23T02:36:44.165Z,14.80
2018-05-23T02:39:11.774Z,14.80
2018-05-23T02:41:39.365Z,14.70
2018-05-23T02:44:07.740Z,14.60
2018-05-23T02:46:36.136Z,14.60
2018-05-23T02:49:03.759Z,14.60
2018-05-23T02:51:31.373Z,14.70
2018-05-23T02:53:58.974Z,14.70
2018-05-23T02:56:26.633Z,14.70
2018-05-23T02:58:54.258Z,14.70
2018-05-23T03:01:21.917Z,14.70
2018-05-23T03:03:49.544Z,14.70
2018-05-23T03:06:17.920Z,14.60
2018-05-23T03:08:46.280Z,14.60
2018-05-23T03:11:13.903Z,14.60
2018-05-23T03:13:41.540Z,14.60
2018-05-23T03:16:09.131Z,14.60
2018-05-23T03:18:36.798Z,14.60
2018-05-23T03:21:04.436Z,14.70
2018-05-23T03:23:32.072Z,14.70
2018-05-23T03:26:00.492Z,14.70
2018-05-23T03:28:28.100Z,14.70
2018-05-23T03:30:56.465Z,14.70
2018-05-23T03:33:24.870Z,14.80
2018-05-23T03:35:52.480Z,14.80
2018-05-23T03:38:20.140Z,14.80
2018-05-23T03:40:47.748Z,14.70
2018-05-23T03:43:15.355Z,14.70
2018-05-23T03:45:43.029Z,14.70
2018-05-23T03:48:10.660Z,14.60
2018-05-23T03:50:38.338Z,14.60
2018-05-23T03:53:05.979Z,14.60
2018-05-23T03:55:33.619Z,14.60
2018-05-23T03:58:01.230Z,14.70
2018-05-23T04:00:40.870Z,14.60
2018-05-23T04:03:20.459Z,14.60
2018-05-23T04:05:59.929Z,14.60
2018-05-23T04:08:27.572Z,14.70
2018-05-23T04:10:55.264Z,14.70
2018-05-23T04:13:22.927Z,14.70
2018-05-23T04:15:50.522Z,14.70
2018-05-23T04:18:18.901Z,14.70
2018-05-23T04:20:47.249Z,14.70
2018-05-23T04:23:14.848Z,14.70
2018-05-23T04:25:42.489Z,14.70
2018-05-23T04:28:10.100Z,14.70
2018-05-23T04:30:37.708Z,14.80
2018-05-23T04:33:05.311Z,14.80
2018-05-23T04:35:32.960Z,14.70
2018-05-23T04:38:00.637Z,14.70
2018-05-23T04:40:28.259Z,14.70
2018-05-23T04:42:56.671Z,14.70
2018-05-23T04:45:24.330Z,14.60
2018-05-23T04:47:51.945Z,14.60
2018-05-23T04:50:20.394Z,14.70
2018-05-23T04:52:48.031Z,14.70
2018-05-23T04:55:15.642Z,14.70
2018-05-23T04:57:43.263Z,14.70
2018-05-23T05:00:10.889Z,14.70
2018-05-23T05:02:39.278Z,14.70
2018-05-23T05:05:06.921Z,14.70
2018-05-23T05:07:35.294Z,14.70
2018-05-23T05:10:03.715Z,14.80
2018-05-23T05:12:31.466Z,14.80
2018-05-23T05:14:59.100Z,14.80
2018-05-23T05:17:27.527Z,14.80
2018-05-23T05:19:55.135Z,14.80
2018-05-23T05:22:23.494Z,14.70
2018-05-23T05:24:51.129Z,14.70
2018-05-23T05:27:18.776Z,14.80
2018-05-23T05:29:46.401Z,14.80
2018-05-23T05:32:14.781Z,14.70
2018-05-23T05:34:43.153Z,14.70
2018-05-23T05:37:11.503Z,14.80
2018-05-23T05:39:39.138Z,14.70
2018-05-23T05:42:06.753Z,14.80
2018-05-23T05:44:35.140Z,14.80
2018-05-23T05:47:02.819Z,14.80
2018-05-23T05:49:30.390Z,14.80
2018-05-23T05:51:58.067Z,14.80
2018-05-23T05:54:25.689Z,14.90
2018-05-23T05:56:53.300Z,14.90
2018-05-23T05:59:20.930Z,14.90
2018-05-23T06:01:48.555Z,14.90
2018-05-23T06:04:16.957Z,15.00
2018-05-23T06:06:44.564Z,15.00
2018-05-23T06:09:12.201Z,15.00
2018-05-23T06:11:39.803Z,15.10
2018-05-23T06:14:08.185Z,15.10
2018-05-23T06:16:36.586Z,15.00
2018-05-23T06:19:04.220Z,15.00
2018-05-23T06:21:32.609Z,15.20
2018-05-23T06:24:01.044Z,15.10
2018-05-23T06:26:28.670Z,15.20
2018-05-23T06:28:56.304Z,15.20
2018-05-23T06:31:24.691Z,15.20
2018-05-23T06:33:53.080Z,15.10
2018-05-23T06:36:20.738Z,15.10
2018-05-23T06:38:48.369Z,15.10
2018-05-23T06:41:16.040Z,15.20
2018-05-23T06:43:44.435Z,15.40
2018-05-23T06:46:12.070Z,15.30
2018-05-23T06:48:39.670Z,15.40
2018-05-23T06:51:07.317Z,15.50
2018-05-23T06:53:34.951Z,15.60
2018-05-23T06:56:02.571Z,15.70
2018-05-23T06:58:30.165Z,15.80
2018-05-23T07:00:57.785Z,15.80
2018-05-23T07:03:25.411Z,16.00
2018-05-23T07:05:53.907Z,16.20
2018-05-23T07:08:21.493Z,16.20
2018-05-23T07:10:49.115Z,16.40
2018-05-23T07:13:16.730Z,16.50
2018-05-23T07:15:44.347Z,16.60
2018-05-23T07:18:12.071Z,16.70
2018-05-23T07:20:39.645Z,16.80
2018-05-23T07:23:08.031Z,17.00
2018-05-23T07:25:36.496Z,17.00
2018-05-23T07:28:04.958Z,17.20
2018-05-23T07:30:32.645Z,17.10
2018-05-23T07:33:01.062Z,17.30
2018-05-23T07:35:28.716Z,17.30
2018-05-23T07:37:56.384Z,17.30
2018-05-23T07:40:24.011Z,17.40
2018-05-23T07:42:52.441Z,17.50
2018-05-23T07:45:20.083Z,17.50
2018-05-23T07:47:47.726Z,17.60
2018-05-23T07:50:15.365Z,17.70
2018-05-23T07:52:43.737Z,17.90
2018-05-23T07:55:12.136Z,18.00
2018-05-23T07:57:40.545Z,18.10
2018-05-23T08:00:08.161Z,18.10
2018-05-23T08:02:36.557Z,18.40
2018-05-23T08:05:04.172Z,18.40
2018-05-23T08:07:31.815Z,18.50
2018-05-23T08:09:59.433Z,18.70
2018-05-23T08:12:27.040Z,18.80
2018-05-23T08:14:54.676Z,18.80
2018-05-23T08:17:22.279Z,18.90
2018-05-23T08:19:49.930Z,19.00
2018-05-23T08:22:17.546Z,19.10
2018-05-23T08:24:45.146Z,19.10
2018-05-23T08:27:12.792Z,19.20
2018-05-23T08:29:40.391Z,19.10
2018-05-23T08:32:08.783Z,19.20
2018-05-23T08:34:37.143Z,19.30
2018-05-23T08:37:04.788Z,19.20
2018-05-23T08:39:32.373Z,19.40
2018-05-23T08:42:00.775Z,19.70
2018-05-23T08:44:28.415Z,19.70
2018-05-23T08:46:56.810Z,19.80
2018-05-23T08:49:24.440Z,19.80
2018-05-23T08:51:52.069Z,19.90
2018-05-23T08:54:19.693Z,19.90
2018-05-23T08:56:47.347Z,20.00
2018-05-23T08:59:15.734Z,20.10
2018-05-23T09:01:43.341Z,20.10
2018-05-23T09:04:10.969Z,20.00
2018-05-23T09:06:38.587Z,20.10
2018-05-23T09:09:07.030Z,20.20
2018-05-23T09:11:34.648Z,20.20
2018-05-23T09:14:02.253Z,20.40
2018-05-23T09:16:29.869Z,20.50
2018-05-23T09:18:57.529Z,20.60
2018-05-23T09:21:25.171Z,20.70
2018-05-23T09:23:53.541Z,20.60
2018-05-23T09:26:21.158Z,20.60
2018-05-23T09:28:48.756Z,20.70
2018-05-23T09:31:16.430Z,20.80
2018-05-23T09:33:44.856Z,20.80
2018-05-23T09:36:12.514Z,20.80
2018-05-23T09:38:40.118Z,20.80
2018-05-23T09:41:07.755Z,20.90
2018-05-23T09:43:35.416Z,21.00
2018-05-23T09:46:03.063Z,21.00
2018-05-23T09:48:30.720Z,21.10
2018-05-23T09:50:58.313Z,21.10
2018-05-23T09:53:25.940Z,21.10
2018-05-23T09:55:53.581Z,21.00
2018-05-23T09:58:21.299Z,21.10
2018-05-23T10:00:48.994Z,21.20
2018-05-23T10:03:16.626Z,21.30
2018-05-23T10:05:44.231Z,21.40
2018-05-23T10:08:11.855Z,21.50
2018-05-23T10:10:40.282Z,21.70
2018-05-23T10:13:07.937Z,21.70
2018-05-23T10:15:35.571Z,21.80
2018-05-23T10:18:04.056Z,22.00
2018-05-23T10:20:31.671Z,22.00
2018-05-23T10:22:59.291Z,22.10
2018-05-23T10:25:26.912Z,22.20
2018-05-23T10:27:54.549Z,22.20
2018-05-23T10:30:22.200Z,22.20
2018-05-23T10:32:49.798Z,22.20
2018-05-23T10:35:18.229Z,22.20
2018-05-23T10:37:45.851Z,22.20
2018-05-23T10:40:14.258Z,22.20
2018-05-23T10:42:41.856Z,22.20
2018-05-23T10:45:09.497Z,22.20
2018-05-23T10:47:37.128Z,22.20
2018-05-23T10:50:04.756Z,22.30
2018-05-23T10:52:33.150Z,22.30
2018-05-23T10:55:01.516Z,22.30
2018-05-23T10:57:29.901Z,22.40
2018-05-23T10:59:58.300Z,22.40
2018-05-23T11:02:25.930Z,22.40
2018-05-23T11:04:54.331Z,22.50
2018-05-23T11:07:21.982Z,22.50
2018-05-23T11:09:49.611Z,22.60
2018-05-23T11:12:17.257Z,22.80
2018-05-23T11:14:44.886Z,22.90
2018-05-23T11:17:12.526Z,23.00
2018-05-23T11:19:40.906Z,23.10
2018-05-23T11:22:08.551Z,23.10
2018-05-23T11:24:36.984Z,23.30
2018-05-23T11:27:04.608Z,23.30
2018-05-23T11:29:32.201Z,23.30
2018-05-23T11:31:59.831Z,23.30
2018-05-23T11:34:27.420Z,23.30
2018-05-23T11:36:55.084Z,23.30
2018-05-23T11:39:23.471Z,23.10
2018-05-23T11:41:51.090Z,23.10
2018-05-23T11:44:18.702Z,23.00
2018-05-23T11:46:46.325Z,22.90
2018-05-23T11:49:13.963Z,22.90
2018-05-23T11:51:42.359Z,22.70
2018-05-23T11:54:09.970Z,22.70
2018-05-23T11:56:37.599Z,22.70
2018-05-23T11:59:05.312Z,22.70
2018-05-23T12:01:33.743Z,22.50
2018-05-23T12:04:01.373Z,22.50
2018-05-23T12:06:28.979Z,22.50
2018-05-23T12:08:56.609Z,22.40
2018-05-23T12:11:24.234Z,22.30
2018-05-23T12:13:52.625Z,22.30
2018-05-23T12:16:20.215Z,22.20
2018-05-23T12:18:47.853Z,22.20
2018-05-23T12:21:15.461Z,22.20
2018-05-23T12:23:43.044Z,22.30
2018-05-23T12:26:11.811Z,22.30
2018-05-23T12:28:39.443Z,22.30
2018-05-23T12:31:07.041Z,22.30
2018-05-23T12:33:34.661Z,22.30
2018-05-23T12:36:02.300Z,22.40
2018-05-23T12:38:29.938Z,22.40
2018-05-23T12:40:58.331Z,22.80
2018-05-23T12:43:25.952Z,22.80
2018-05-23T12:45:53.575Z,22.90
2018-05-23T12:48:21.226Z,23.10
2018-05-23T12:50:48.900Z,23.50
2018-05-23T12:53:16.534Z,23.80
2018-05-23T12:55:44.179Z,24.10
2018-05-23T12:58:12.534Z,24.60
2018-05-23T13:00:40.170Z,24.50
2018-05-23T13:03:07.831Z,24.60
2018-05-23T13:05:35.469Z,24.60
2018-05-23T13:08:03.085Z,24.60
2018-05-23T13:10:30.699Z,24.50
2018-05-23T13:12:58.302Z,24.50
2018-05-23T13:15:25.936Z,24.50
2018-05-23T13:17:53.693Z,24.60
2018-05-23T13:20:21.350Z,24.60
2018-05-23T13:22:48.961Z,24.60
2018-05-23T13:25:17.345Z,24.60
2018-05-23T13:27:45.799Z,24.50
2018-05-23T13:30:13.435Z,24.50
2018-05-23T13:32:41.061Z,24.50
2018-05-23T13:35:08.701Z,24.40
2018-05-23T13:37:37.052Z,24.30
2018-05-23T13:40:04.675Z,24.30
2018-05-23T13:42:32.340Z,24.40
2018-05-23T13:44:59.971Z,24.50
2018-05-23T13:47:27.657Z,24.50
2018-05-23T13:49:55.333Z,24.60
2018-05-23T13:52:22.981Z,24.50
2018-05-23T13:54:50.598Z,24.50
2018-05-23T13:57:18.996Z,24.70
2018-05-23T13:59:47.409Z,24.90
2018-05-23T14:02:15.018Z,24.90
2018-05-23T14:04:43.454Z,25.60
2018-05-23T14:07:11.111Z,25.60
2018-05-23T14:09:38.791Z,26.00
2018-05-23T14:12:09.562Z,26.20
2018-05-23T14:14:37.959Z,26.40
2018-05-23T14:17:05.634Z,26.30
2018-05-23T14:19:33.249Z,26.80
2018-05-23T14:22:00.860Z,26.80
2018-05-23T14:24:28.486Z,27.00
2018-05-23T14:26:56.870Z,27.10
2018-05-23T14:29:24.570Z,27.10
2018-05-23T14:31:52.171Z,26.70
2018-05-23T14:34:20.545Z,25.60
2018-05-23T14:36:48.162Z,25.60
2018-05-23T14:39:15.774Z,25.20
2018-05-23T14:41:44.172Z,24.50
2018-05-23T14:44:11.803Z,24.40
2018-05-23T14:46:39.426Z,24.20
2018-05-23T14:49:07.050Z,24.00
2018-05-23T14:51:34.674Z,23.70
2018-05-23T14:54:02.311Z,23.50
2018-05-23T14:56:30.031Z,23.30
2018-05-23T14:58:57.674Z,23.20
2018-05-23T15:01:26.054Z,23.20
2018-05-23T15:03:54.441Z,23.40
2018-05-23T15:06:22.920Z,23.70
2018-05-23T15:08:51.280Z,24.30
2018-05-23T15:11:18.943Z,24.30
2018-05-23T15:13:46.574Z,25.00
2018-05-23T15:16:14.173Z,25.40
2018-05-23T15:18:42.610Z,25.00
2018-05-23T15:21:10.249Z,25.00
2018-05-23T15:23:37.872Z,24.70
2018-05-23T15:26:06.314Z,24.20
2018-05-23T15:28:33.986Z,24.20
2018-05-23T15:31:01.628Z,24.00
2018-05-23T15:33:30.032Z,23.70
2018-05-23T15:35:57.671Z,23.70
2018-05-23T15:38:25.264Z,23.70
2018-05-23T15:40:52.903Z,23.90
2018-05-23T15:43:20.578Z,24.10
2018-05-23T15:45:48.210Z,24.00
2018-05-23T15:48:15.861Z,24.10
2018-05-23T15:50:43.510Z,24.10
2018-05-23T15:53:11.149Z,24.10
2018-05-23T15:55:39.566Z,24.60
2018-05-23T15:58:07.181Z,24.50
2018-05-23T16:00:35.566Z,24.70
2018-05-23T16:03:03.277Z,24.70
2018-05-23T16:05:30.848Z,24.50
2018-05-23T16:07:58.460Z,24.30
2018-05-23T16:10:26.083Z,24.10
2018-05-23T16:12:54.480Z,23.70
2018-05-23T16:15:22.875Z,23.60
2018-05-23T16:17:50.479Z,23.60
2018-05-23T16:20:18.125Z,23.50
2018-05-23T16:22:45.740Z,23.50
2018-05-23T16:25:14.161Z,23.40
2018-05-23T16:27:41.775Z,23.40
2018-05-23T16:30:10.178Z,23.30
2018-05-23T16:32:37.878Z,23.30
2018-05-23T16:37:39.379Z,23.20
2018-05-23T16:40:07.816Z,23.20
2018-05-23T16:42:35.490Z,23.20
2018-05-23T16:45:03.126Z,23.20
2018-05-23T16:47:31.710Z,23.10
2018-05-23T16:49:59.362Z,22.90
2018-05-23T16:52:27.040Z,22.80
2018-05-23T16:54:54.638Z,22.70
2018-05-23T16:57:23.021Z,22.50
2018-05-23T16:59:51.397Z,22.40
2018-05-23T17:02:19.806Z,22.30
2018-05-23T17:04:47.439Z,22.30
2018-05-23T17:07:15.805Z,22.20
2018-05-23T17:09:43.420Z,22.20
2018-05-23T17:12:11.028Z,22.20
2018-05-23T17:14:38.660Z,22.10
2018-05-23T17:17:06.306Z,22.10
2018-05-23T17:19:33.916Z,22.00
2018-05-23T17:22:02.290Z,21.90
2018-05-23T17:24:30.650Z,21.90
2018-05-23T17:26:58.264Z,21.80
2018-05-23T17:29:25.883Z,21.80
2018-05-23T17:31:54.290Z,21.80
2018-05-23T17:34:21.892Z,21.80
2018-05-23T17:36:49.498Z,21.80
2018-05-23T17:39:17.885Z,21.60
2018-05-23T17:41:45.507Z,21.60
2018-05-23T17:44:13.125Z,21.60
2018-05-23T17:46:40.716Z,21.60
2018-05-23T17:49:08.341Z,21.50
2018-05-23T17:51:36.034Z,21.50
2018-05-23T17:54:03.687Z,21.40
2018-05-23T17:56:31.286Z,21.40
2018-05-23T17:58:59.691Z,21.30
2018-05-23T18:01:27.880Z,21.20
2018-05-23T18:03:55.549Z,21.20
2018-05-23T18:06:23.212Z,21.10
2018-05-23T18:09:10.050Z,21.10
2018-05-23T18:20:30.598Z,21.10
2018-05-23T18:22:58.240Z,21.10
2018-05-23T18:25:26.038Z,21.00
2018-05-23T18:27:54.553Z,21.00
2018-05-23T18:30:22.199Z,20.90
2018-05-23T18:32:50.595Z,20.90
2018-05-23T18:35:18.217Z,20.80
2018-05-23T18:37:45.830Z,20.80
2018-05-23T18:40:18.059Z,20.80
2018-05-23T18:42:46.471Z,20.70
2018-05-23T18:45:21.621Z,20.70
2018-05-23T18:47:49.270Z,20.70
2018-05-23T18:50:16.936Z,20.70
2018-05-23T18:52:44.523Z,20.60
2018-05-23T18:55:12.800Z,20.60
2018-05-23T18:57:40.443Z,20.70
2018-05-23T19:00:08.075Z,20.60
2018-05-23T19:02:36.480Z,20.60
2018-05-23T19:05:04.277Z,20.60
2018-05-23T19:07:32.608Z,20.50
2018-05-23T19:10:00.240Z,20.50
2018-05-23T19:12:28.629Z,20.60
2018-05-23T19:14:58.081Z,20.60
2018-05-23T19:17:25.724Z,20.60
2018-05-23T19:19:53.446Z,20.60
2018-05-23T19:22:21.030Z,20.50
2018-05-23T19:24:48.680Z,20.50
2018-05-23T19:27:17.706Z,20.50
2018-05-23T19:29:45.429Z,20.40
2018-05-23T19:32:13.936Z,20.20
2018-05-23T19:34:41.610Z,20.10
2018-05-23T19:37:09.385Z,20.10
2018-05-23T19:39:36.990Z,20.10
2018-05-23T19:42:05.440Z,19.90
2018-05-23T19:44:33.066Z,19.90
2018-05-23T19:47:00.741Z,19.90
2018-05-23T19:49:28.400Z,19.90
2018-05-23T19:51:56.044Z,19.90
2018-05-23T19:54:23.901Z,19.90
2018-05-23T19:56:51.655Z,19.90
2018-05-23T19:59:20.282Z,19.90
2018-05-23T20:01:47.915Z,19.90
2018-05-23T20:04:15.505Z,19.70
2018-05-23T20:06:43.109Z,19.70
2018-05-23T20:09:11.490Z,19.60
2018-05-23T20:11:39.912Z,19.60
2018-05-23T20:14:07.631Z,19.60
2018-05-23T20:16:35.200Z,19.60
2018-05-23T20:19:02.821Z,19.50
2018-05-23T20:21:30.440Z,19.50
2018-05-23T20:23:58.088Z,19.40
2018-05-23T20:26:25.684Z,19.30
2018-05-23T20:28:53.372Z,19.20
2018-05-23T20:31:21.049Z,19.20
2018-05-23T20:33:49.440Z,18.90
2018-05-23T20:36:17.103Z,18.90
2018-05-23T20:38:44.750Z,18.80
2018-05-23T20:41:13.159Z,18.70
2018-05-23T20:43:40.832Z,18.70
2018-05-23T20:46:08.490Z,18.70
2018-05-23T20:48:36.171Z,18.70
2018-05-23T20:51:03.822Z,18.70
2018-05-23T20:53:31.530Z,18.70
2018-05-23T20:55:59.971Z,18.50
2018-05-23T20:58:27.715Z,18.50
2018-05-23T21:00:55.393Z,18.40
2018-05-23T21:03:23.121Z,18.40
2018-05-23T21:05:50.890Z,18.40
2018-05-23T21:08:18.534Z,18.50
2018-05-23T21:10:46.919Z,18.50
2018-05-23T21:13:14.615Z,18.50
2018-05-23T21:15:42.262Z,18.50
2018-05-23T21:18:09.895Z,18.60
2018-05-23T21:20:38.339Z,18.60
2018-05-23T21:23:05.970Z,18.60
2018-05-23T21:25:33.628Z,18.50
2018-05-23T21:28:01.261Z,18.50
2018-05-23T21:30:28.913Z,18.40
2018-05-23T21:32:57.307Z,18.50
2018-05-23T21:35:24.942Z,18.50
2018-05-23T21:37:53.338Z,18.50
2018-05-23T21:40:20.985Z,18.50
2018-05-23T21:42:49.426Z,18.50
2018-05-23T21:45:17.090Z,18.40
2018-05-23T21:47:44.779Z,18.40
2018-05-23T21:50:12.519Z,18.40
2018-05-23T21:52:40.179Z,18.20
2018-05-23T21:55:07.790Z,18.10
2018-05-23T21:57:35.420Z,18.20
2018-05-23T22:00:03.081Z,18.20
2018-05-23T22:02:31.560Z,18.20
2018-05-23T22:04:59.254Z,18.20
2018-05-23T22:07:26.908Z,18.20
2018-05-23T22:09:54.554Z,18.20
2018-05-23T22:12:22.941Z,18.10
2018-05-23T22:14:50.621Z,18.00
2018-05-23T22:17:18.281Z,18.00
2018-05-23T22:19:45.937Z,17.90
2018-05-23T22:22:13.629Z,17.80
2018-05-23T22:24:41.295Z,17.70
2018-05-23T22:27:08.975Z,17.70
2018-05-23T22:29:36.559Z,17.60
2018-05-23T22:32:04.977Z,17.50
2018-05-23T22:34:32.597Z,17.40
2018-05-23T22:37:00.939Z,17.40
2018-05-23T22:39:28.593Z,17.40
2018-05-23T22:41:56.217Z,17.40
2018-05-23T22:44:23.854Z,17.30
2018-05-23T22:46:52.261Z,17.10
2018-05-23T22:49:19.888Z,17.10
2018-05-23T22:51:47.521Z,17.00
2018-05-23T22:54:15.130Z,17.00
2018-05-23T22:56:42.721Z,17.00
2018-05-23T22:59:10.390Z,16.90
2018-05-23T23:01:38.020Z,16.90
2018-05-23T23:04:05.677Z,16.80
2018-05-23T23:06:33.275Z,16.90
2018-05-23T23:09:00.875Z,16.80
2018-05-23T23:11:29.258Z,16.80
2018-05-23T23:13:57.674Z,16.70
2018-05-23T23:16:26.015Z,16.70
2018-05-23T23:18:54.404Z,16.80
2018-05-23T23:21:22.030Z,16.70
2018-05-23T23:23:49.656Z,16.80
2018-05-23T23:26:17.250Z,16.70
2018-05-23T23:28:44.890Z,16.70
2018-05-23T23:31:12.499Z,16.70
2018-05-23T23:33:40.882Z,16.70
2018-05-23T23:36:08.502Z,16.70
2018-05-23T23:38:36.119Z,16.70
2018-05-23T23:41:03.780Z,16.70
2018-05-23T23:43:31.402Z,16.70
2018-05-23T23:45:59.127Z,16.70
2018-05-23T23:48:26.740Z,16.60
2018-05-23T23:50:55.150Z,16.70
2018-05-23T23:53:22.801Z,16.60
2018-05-23T23:55:50.443Z,16.70
2018-05-23T23:58:18.817Z,16.70
